Time;durP1;ratioP1;P1;durP2;ratioP2;P2;SDS_P1;SDS_P2;PMS_P1;PMS_P2;Temp;Humidity;BMP_temperature;BMP_pressure;BME280_temperature;BME280_humidity;BME280_pressure;Samples;Min_cycle;Max_cycle;Signal;HPM_P1;HPM_P2
2021/12/25 00:02:21;;;;;;;67.57;36.17;;;;;;;;;;6199235;28;20042;-66
2021/12/25 00:05:22;;;;;;;67.93;38.50;;;;;;;;;;6203068;28;20050;-66
2021/12/25 00:08:27;;;;;;;62.88;34.70;;;;;;;;;;6199243;28;20189;-65
2021/12/25 00:11:29;;;;;;;61.47;35.88;;;;;;;;;;6178842;28;20050;-65
2021/12/25 00:14:30;;;;;;;60.58;35.15;;;;;;;;;;6182910;28;20082;-66
2021/12/25 00:17:33;;;;;;;61.20;34.90;;;;;;;;;;6169189;28;20628;-65
2021/12/25 00:20:34;;;;;;;62.85;36.53;;;;;;;;;;6181490;28;20054;-66
2021/12/25 00:23:38;;;;;;;64.30;35.58;;;;;;;;;;6188492;28;20593;-66
2021/12/25 00:26:51;;;;;;;61.85;36.20;;;;;;;;;;6189806;28;20570;-65
2021/12/25 00:30:07;;;;;;;66.72;36.67;;;;;;;;;;6210924;28;20108;-65
2021/12/25 00:33:30;;;;;;;68.20;37.53;;;;;;;;;;6182644;28;20407;-66
2021/12/25 00:36:32;;;;;;;68.90;37.38;;;;;;;;;;6176806;28;20050;-65
2021/12/25 00:39:35;;;;;;;64.18;35.95;;;;;;;;;;6182879;28;20153;-65
2021/12/25 00:42:36;;;;;;;63.92;35.67;;;;;;;;;;6176271;28;20050;-65
2021/12/25 00:45:38;;;;;;;66.05;37.38;;;;;;;;;;6173499;28;20205;-65
2021/12/25 00:48:39;;;;;;;65.93;38.13;;;;;;;;;;6170661;28;20073;-65
2021/12/25 00:51:41;;;;;;;66.90;37.03;;;;;;;;;;6174648;28;20117;-65
2021/12/25 00:54:44;;;;;;;66.82;37.95;;;;;;;;;;6184448;28;20212;-65
2021/12/25 00:57:46;;;;;;;63.83;36.28;;;;;;;;;;6181918;28;20058;-66
2021/12/25 01:00:47;;;;;;;68.45;37.47;;;;;;;;;;6177803;28;20137;-65
2021/12/25 01:03:49;;;;;;;65.60;36.83;;;;;;;;;;6192724;28;20568;-66
2021/12/25 01:06:51;;;;;;;66.03;37.55;;;;;;;;;;6197085;28;20094;-65
2021/12/25 01:09:54;;;;;;;64.85;37.58;;;;;;;;;;6192532;28;20140;-66
2021/12/25 01:13:03;;;;;;;66.40;38.05;;;;;;;;;;6204915;28;20046;-66
2021/12/25 01:16:20;;;;;;;63.42;35.88;;;;;;;;;;6208565;28;20321;-65
2021/12/25 01:19:44;;;;;;;68.53;36.17;;;;;;;;;;6207798;28;20053;-66
2021/12/25 01:26:20;;;;;;;67.00;36.33;;;;;;;;;;6195372;28;20085;-65
2021/12/25 01:33:01;;;;;;;67.45;37.38;;;;;;;;;;6185314;28;20458;-66
2021/12/25 01:39:40;;;;;;;67.00;37.95;;;;;;;;;;6195343;28;20075;-65
2021/12/25 01:49:22;;;;;;;69.30;38.00;;;;;;;;;;6196119;28;20054;-66
2021/12/25 01:52:26;;;;;;;67.43;37.28;;;;;;;;;;6196181;28;20042;-65
2021/12/25 01:55:30;;;;;;;67.38;37.92;;;;;;;;;;6185671;28;20042;-66
2021/12/25 01:58:33;;;;;;;69.97;39.13;;;;;;;;;;6221167;28;20236;-65
2021/12/25 02:01:35;;;;;;;73.80;39.03;;;;;;;;;;6207647;28;20531;-65
2021/12/25 02:04:36;;;;;;;69.57;37.03;;;;;;;;;;6224058;28;20049;-65
2021/12/25 02:07:38;;;;;;;72.22;38.38;;;;;;;;;;6219176;28;20043;-65
2021/12/25 02:10:40;;;;;;;71.53;37.55;;;;;;;;;;6205442;28;20096;-65
2021/12/25 02:13:43;;;;;;;68.45;38.13;;;;;;;;;;6196747;28;20617;-65
2021/12/25 02:16:54;;;;;;;66.88;35.90;;;;;;;;;;6183710;28;20047;-65
2021/12/25 02:20:13;;;;;;;68.80;36.17;;;;;;;;;;6194396;28;20098;-65
2021/12/25 02:23:19;;;;;;;64.50;35.88;;;;;;;;;;6186654;28;20446;-65
2021/12/25 02:26:24;;;;;;;68.45;37.63;;;;;;;;;;6186112;28;20038;-65
2021/12/25 02:29:25;;;;;;;66.22;37.08;;;;;;;;;;6192728;28;20136;-65
2021/12/25 02:32:27;;;;;;;65.38;36.30;;;;;;;;;;6180500;28;20045;-65
2021/12/25 02:35:30;;;;;;;65.85;37.47;;;;;;;;;;6206849;28;20128;-65
2021/12/25 02:38:33;;;;;;;74.07;38.03;;;;;;;;;;6222429;28;21354;-65
2021/12/25 02:41:34;;;;;;;62.97;36.10;;;;;;;;;;6189359;28;20469;-65
2021/12/25 02:44:36;;;;;;;70.93;39.08;;;;;;;;;;6188182;28;20090;-65
2021/12/25 02:47:42;;;;;;;67.30;36.03;;;;;;;;;;6174854;28;20074;-65
2021/12/25 02:50:46;;;;;;;69.72;37.70;;;;;;;;;;6190184;28;20100;-65
2021/12/25 02:53:47;;;;;;;65.72;36.38;;;;;;;;;;6193377;28;20124;-65
2021/12/25 02:56:49;;;;;;;68.00;37.13;;;;;;;;;;6193315;28;20096;-65
2021/12/25 02:59:51;;;;;;;72.25;38.28;;;;;;;;;;6201333;28;20562;-65
2021/12/25 03:02:52;;;;;;;66.50;36.03;;;;;;;;;;6203363;28;20049;-65
2021/12/25 03:05:55;;;;;;;63.95;36.38;;;;;;;;;;6191728;28;20183;-65
2021/12/25 03:08:57;;;;;;;64.25;35.67;;;;;;;;;;6230767;28;20227;-65
2021/12/25 03:11:59;;;;;;;64.90;33.60;;;;;;;;;;6215071;28;20046;-64
2021/12/25 03:15:05;;;;;;;55.33;31.52;;;;;;;;;;6212665;28;20077;-64
2021/12/25 03:18:07;;;;;;;55.88;31.35;;;;;;;;;;6205431;28;20060;-64
2021/12/25 03:21:11;;;;;;;49.97;29.27;;;;;;;;;;6204236;28;20107;-64
2021/12/25 03:24:12;;;;;;;52.00;30.35;;;;;;;;;;6219669;28;20409;-65
2021/12/25 03:27:14;;;;;;;55.42;27.88;;;;;;;;;;6209443;28;20053;-65
2021/12/25 03:30:17;;;;;;;51.75;28.63;;;;;;;;;;6193945;28;20155;-65
2021/12/25 03:33:21;;;;;;;49.60;29.75;;;;;;;;;;6198389;28;20545;-65
2021/12/25 03:36:24;;;;;;;52.58;29.77;;;;;;;;;;6205752;28;20058;-64
2021/12/25 03:39:25;;;;;;;49.05;28.48;;;;;;;;;;6189722;28;20645;-65
2021/12/25 03:42:27;;;;;;;48.60;29.60;;;;;;;;;;6183515;28;20634;-65
2021/12/25 03:45:31;;;;;;;51.40;27.35;;;;;;;;;;6192396;28;20908;-65
2021/12/25 03:48:58;;;;;;;46.15;27.60;;;;;;;;;;6199489;28;20050;-65
2021/12/25 03:58:40;;;;;;;52.30;29.10;;;;;;;;;;6220784;28;20050;-64
2021/12/25 04:01:47;;;;;;;52.20;29.98;;;;;;;;;;6199782;28;20057;-65
2021/12/25 04:04:50;;;;;;;53.35;28.88;;;;;;;;;;6224804;28;20062;-65
2021/12/25 04:11:14;;;;;;;48.35;27.67;;;;;;;;;;6208199;28;20480;-66
2021/12/25 04:14:16;;;;;;;44.92;26.02;;;;;;;;;;6220039;28;20144;-65
2021/12/25 04:17:18;;;;;;;46.28;26.77;;;;;;;;;;6172172;28;20078;-65
2021/12/25 04:20:20;;;;;;;50.60;27.98;;;;;;;;;;6186040;28;20177;-65
2021/12/25 04:23:26;;;;;;;47.63;27.52;;;;;;;;;;6216332;28;20057;-65
2021/12/25 04:26:28;;;;;;;48.85;28.52;;;;;;;;;;6193078;28;20053;-65
2021/12/25 04:29:39;;;;;;;57.20;30.23;;;;;;;;;;6191877;28;20439;-65
2021/12/25 04:50:05;;;;;;;66.57;36.83;;;;;;;;;;6194178;28;20502;-65
2021/12/25 05:03:13;;;;;;;61.22;35.45;;;;;;;;;;6205542;28;20510;-65
2021/12/25 05:06:15;;;;;;;67.75;37.17;;;;;;;;;;6211362;28;20041;-65
2021/12/25 05:09:17;;;;;;;67.90;38.33;;;;;;;;;;6221199;28;20409;-65
2021/12/25 05:12:20;;;;;;;68.53;36.25;;;;;;;;;;6210988;28;20545;-65
2021/12/25 05:15:21;;;;;;;69.15;35.95;;;;;;;;;;6213462;28;20189;-64
2021/12/25 05:18:23;;;;;;;65.28;36.30;;;;;;;;;;6216361;28;20112;-65
2021/12/25 05:21:25;;;;;;;65.13;35.58;;;;;;;;;;6208755;28;20144;-64
2021/12/25 05:24:27;;;;;;;62.97;36.08;;;;;;;;;;6219291;28;20143;-65
2021/12/25 05:27:30;;;;;;;65.78;36.53;;;;;;;;;;6206659;28;20069;-65
2021/12/25 05:30:32;;;;;;;62.97;35.17;;;;;;;;;;6181077;28;20109;-65
2021/12/25 05:33:33;;;;;;;64.88;36.15;;;;;;;;;;6201270;28;20458;-65
2021/12/25 05:36:35;;;;;;;70.00;35.75;;;;;;;;;;6182910;28;20082;-64
2021/12/25 05:39:38;;;;;;;66.25;36.88;;;;;;;;;;6189221;28;20143;-65
2021/12/25 05:42:41;;;;;;;67.70;36.33;;;;;;;;;;6196128;28;20042;-65
2021/12/25 05:45:43;;;;;;;68.13;36.15;;;;;;;;;;6210570;28;20075;-65
2021/12/25 05:48:45;;;;;;;65.32;35.45;;;;;;;;;;6214460;28;20042;-65
2021/12/25 05:51:47;;;;;;;59.05;33.88;;;;;;;;;;6208856;28;20053;-65
2021/12/25 05:54:49;;;;;;;58.50;33.95;;;;;;;;;;6217205;28;20127;-65
2021/12/25 05:57:52;;;;;;;60.20;34.08;;;;;;;;;;6207456;28;20164;-65
2021/12/25 06:00:54;;;;;;;54.07;31.43;;;;;;;;;;6209989;28;20201;-65
2021/12/25 06:03:56;;;;;;;60.35;33.17;;;;;;;;;;6224899;28;20118;-65
2021/12/25 06:07:00;;;;;;;58.88;31.73;;;;;;;;;;6212631;28;20053;-65
2021/12/25 06:10:03;;;;;;;59.17;31.95;;;;;;;;;;6191129;28;20564;-65
2021/12/25 06:13:06;;;;;;;54.05;31.58;;;;;;;;;;6182180;28;20054;-65
2021/12/25 06:16:07;;;;;;;56.17;31.40;;;;;;;;;;6179582;28;20038;-65
2021/12/25 06:19:09;;;;;;;55.63;30.83;;;;;;;;;;6202422;28;20067;-65
2021/12/25 06:22:11;;;;;;;52.88;30.33;;;;;;;;;;6188088;28;20136;-65
2021/12/25 06:25:12;;;;;;;50.92;29.00;;;;;;;;;;6182234;28;20518;-65
2021/12/25 06:28:15;;;;;;;54.65;29.38;;;;;;;;;;6216656;28;20049;-65
2021/12/25 06:31:17;;;;;;;49.50;29.88;;;;;;;;;;6188408;28;20180;-65
2021/12/25 06:34:18;;;;;;;50.47;28.75;;;;;;;;;;6218479;28;20066;-65
2021/12/25 06:37:20;;;;;;;48.22;28.67;;;;;;;;;;6211096;28;20076;-65
2021/12/25 06:40:22;;;;;;;51.42;28.67;;;;;;;;;;6209714;28;20100;-65
2021/12/25 06:43:25;;;;;;;51.33;29.27;;;;;;;;;;6220388;28;20042;-65
2021/12/25 06:46:27;;;;;;;49.63;26.90;;;;;;;;;;6199979;28;20130;-64
2021/12/25 06:49:29;;;;;;;47.15;26.38;;;;;;;;;;6215582;28;20069;-65
2021/12/25 06:52:30;;;;;;;46.88;26.75;;;;;;;;;;6203564;28;20152;-65
2021/12/25 06:55:32;;;;;;;48.88;27.58;;;;;;;;;;6184245;28;20147;-65
2021/12/25 06:58:35;;;;;;;49.70;27.83;;;;;;;;;;6216634;28;20046;-65
2021/12/25 07:01:37;;;;;;;50.15;27.77;;;;;;;;;;6198613;28;20215;-65
2021/12/25 07:04:39;;;;;;;51.15;29.08;;;;;;;;;;6212937;28;20502;-65
2021/12/25 07:07:41;;;;;;;50.92;27.38;;;;;;;;;;6205623;28;20119;-64
2021/12/25 07:10:42;;;;;;;48.33;27.90;;;;;;;;;;6212324;28;20141;-65
2021/12/25 07:13:46;;;;;;;46.55;26.60;;;;;;;;;;6221484;28;20135;-65
2021/12/25 07:16:48;;;;;;;45.92;28.23;;;;;;;;;;6197249;28;20042;-65
2021/12/25 07:19:49;;;;;;;47.22;26.55;;;;;;;;;;6211545;28;20073;-65
2021/12/25 07:22:51;;;;;;;48.88;27.50;;;;;;;;;;6187738;28;20051;-65
2021/12/25 07:25:52;;;;;;;52.50;28.60;;;;;;;;;;6183698;28;20145;-65
2021/12/25 07:28:55;;;;;;;52.22;29.88;;;;;;;;;;6194358;28;20157;-65
2021/12/25 07:31:57;;;;;;;57.88;32.72;;;;;;;;;;6173429;28;20065;-65
2021/12/25 07:34:59;;;;;;;55.80;31.30;;;;;;;;;;6191203;28;20201;-65
2021/12/25 07:38:00;;;;;;;60.22;32.30;;;;;;;;;;6183895;28;20046;-65
2021/12/25 07:41:02;;;;;;;60.05;34.50;;;;;;;;;;6187394;28;20220;-65
2021/12/25 07:44:05;;;;;;;57.83;33.00;;;;;;;;;;6195075;28;20573;-65
2021/12/25 07:47:10;;;;;;;58.22;32.75;;;;;;;;;;6179832;28;20053;-66
2021/12/25 07:50:13;;;;;;;58.28;33.25;;;;;;;;;;6187491;28;20069;-65
2021/12/25 07:53:16;;;;;;;58.90;33.35;;;;;;;;;;6187532;28;20050;-66
2021/12/25 07:56:18;;;;;;;57.15;33.70;;;;;;;;;;6180973;28;20050;-65
2021/12/25 07:59:21;;;;;;;51.55;31.23;;;;;;;;;;6194517;28;20065;-65
2021/12/25 08:02:22;;;;;;;53.40;30.00;;;;;;;;;;6182101;28;20594;-65
2021/12/25 08:05:24;;;;;;;56.83;30.48;;;;;;;;;;6212457;28;20486;-65
2021/12/25 08:08:25;;;;;;;55.40;31.88;;;;;;;;;;6192257;28;20462;-65
2021/12/25 08:11:28;;;;;;;55.28;32.08;;;;;;;;;;6213235;28;20053;-65
2021/12/25 08:14:31;;;;;;;57.95;32.63;;;;;;;;;;6226809;28;20116;-65
2021/12/25 08:17:33;;;;;;;58.53;31.42;;;;;;;;;;6189261;28;20081;-65
2021/12/25 08:20:36;;;;;;;57.78;33.47;;;;;;;;;;6188561;28;20108;-65
2021/12/25 08:23:37;;;;;;;57.53;31.70;;;;;;;;;;6196154;28;20050;-65
2021/12/25 08:26:39;;;;;;;58.20;32.83;;;;;;;;;;6184823;28;20043;-65
2021/12/25 08:29:42;;;;;;;54.75;32.17;;;;;;;;;;6198962;28;20051;-65
2021/12/25 08:32:44;;;;;;;59.15;32.50;;;;;;;;;;6183036;28;20141;-64
2021/12/25 08:35:45;;;;;;;56.05;32.70;;;;;;;;;;6203702;28;20073;-64
2021/12/25 08:38:47;;;;;;;60.60;33.33;;;;;;;;;;6197878;28;20046;-65
2021/12/25 08:41:49;;;;;;;61.22;33.17;;;;;;;;;;6177686;28;20085;-65
2021/12/25 08:45:06;;;;;;;58.70;34.03;;;;;;;;;;6195286;28;20138;-65
2021/12/25 08:48:11;;;;;;;60.75;33.47;;;;;;;;;;6181275;28;20053;-65
2021/12/25 08:51:13;;;;;;;58.10;33.50;;;;;;;;;;6193083;28;20069;-64
2021/12/25 08:54:15;;;;;;;64.43;34.22;;;;;;;;;;6219804;28;20157;-65
2021/12/25 08:57:17;;;;;;;57.60;34.50;;;;;;;;;;6206298;28;20718;-65
2021/12/25 09:00:20;;;;;;;55.55;32.75;;;;;;;;;;6210916;28;20466;-65
2021/12/25 09:03:22;;;;;;;61.83;33.70;;;;;;;;;;6195432;28;20657;-65
2021/12/25 09:06:25;;;;;;;57.00;33.72;;;;;;;;;;6187689;28;20133;-65
2021/12/25 09:09:27;;;;;;;59.30;33.85;;;;;;;;;;6214838;28;20053;-66
2021/12/25 09:12:29;;;;;;;56.67;33.50;;;;;;;;;;6216044;28;20192;-64
2021/12/25 09:15:32;;;;;;;60.78;34.90;;;;;;;;;;6208218;28;21178;-66
2021/12/25 09:18:33;;;;;;;62.95;35.35;;;;;;;;;;6216007;28;20490;-65
2021/12/25 09:21:35;;;;;;;63.22;35.58;;;;;;;;;;6214570;28;20066;-65
2021/12/25 09:24:37;;;;;;;62.88;36.00;;;;;;;;;;6228281;28;20569;-64
2021/12/25 09:27:39;;;;;;;58.10;33.92;;;;;;;;;;6208530;28;20136;-64
2021/12/25 09:30:43;;;;;;;60.60;34.72;;;;;;;;;;6212575;28;20141;-65
2021/12/25 09:33:45;;;;;;;61.15;35.47;;;;;;;;;;6215305;28;20053;-65
2021/12/25 09:36:46;;;;;;;61.10;33.97;;;;;;;;;;6210155;28;20506;-65
2021/12/25 09:39:49;;;;;;;65.47;34.47;;;;;;;;;;6220270;28;20133;-65
2021/12/25 09:42:51;;;;;;;54.78;34.67;;;;;;;;;;6191226;28;20137;-65
2021/12/25 09:45:54;;;;;;;57.92;33.25;;;;;;;;;;6179278;28;20107;-65
2021/12/25 09:48:56;;;;;;;54.90;32.80;;;;;;;;;;6186111;28;20494;-65
2021/12/25 09:51:58;;;;;;;56.85;34.08;;;;;;;;;;6200878;28;20405;-65
2021/12/25 09:55:00;;;;;;;62.30;34.55;;;;;;;;;;6217598;28;20058;-65
2021/12/25 09:58:01;;;;;;;60.20;33.42;;;;;;;;;;6215273;28;20244;-65
2021/12/25 10:01:04;;;;;;;59.47;33.75;;;;;;;;;;6204001;28;21034;-65
2021/12/25 10:04:07;;;;;;;62.92;34.33;;;;;;;;;;6223132;28;20128;-65
2021/12/25 10:07:13;;;;;;;56.20;32.58;;;;;;;;;;6192745;28;20507;-66
2021/12/25 10:10:16;;;;;;;56.95;32.88;;;;;;;;;;6190181;28;20189;-66
2021/12/25 10:13:20;;;;;;;59.35;33.38;;;;;;;;;;6188852;28;20062;-66
2021/12/25 10:16:25;;;;;;;62.42;32.50;;;;;;;;;;6178063;28;20100;-66
2021/12/25 10:19:31;;;;;;;59.53;34.17;;;;;;;;;;6187538;28;20136;-66
2021/12/25 10:22:32;;;;;;;58.80;33.22;;;;;;;;;;6182798;28;20054;-65
2021/12/25 10:25:42;;;;;;;63.92;35.28;;;;;;;;;;6179769;28;20114;-66
2021/12/25 10:28:44;;;;;;;62.85;34.63;;;;;;;;;;6194881;28;20038;-65
2021/12/25 10:31:47;;;;;;;60.60;34.40;;;;;;;;;;6180777;28;20116;-65
2021/12/25 10:34:49;;;;;;;62.97;33.95;;;;;;;;;;6192406;28;20149;-65
2021/12/25 10:37:51;;;;;;;59.30;33.95;;;;;;;;;;6184215;28;20078;-65
2021/12/25 10:41:11;;;;;;;59.75;33.60;;;;;;;;;;6213348;28;20540;-66
2021/12/25 10:44:15;;;;;;;59.63;34.60;;;;;;;;;;6216962;28;20038;-66
2021/12/25 10:47:21;;;;;;;85.53;34.88;;;;;;;;;;6186742;28;20178;-65
2021/12/25 10:50:25;;;;;;;58.40;32.83;;;;;;;;;;6204237;28;20060;-66
2021/12/25 10:53:29;;;;;;;62.80;34.67;;;;;;;;;;6210412;28;20057;-65
2021/12/25 10:56:36;;;;;;;59.10;33.13;;;;;;;;;;6206756;28;20136;-65
2021/12/25 10:59:46;;;;;;;58.15;34.25;;;;;;;;;;6212622;28;20313;-66
2021/12/25 11:02:50;;;;;;;59.00;34.38;;;;;;;;;;6197806;28;20054;-66
2021/12/25 11:05:52;;;;;;;60.97;33.90;;;;;;;;;;6205562;28;20060;-65
2021/12/25 11:08:53;;;;;;;59.03;34.45;;;;;;;;;;6214341;28;20088;-64
2021/12/25 11:12:16;;;;;;;58.47;33.58;;;;;;;;;;6204300;28;20141;-64
2021/12/25 11:15:22;;;;;;;60.08;34.25;;;;;;;;;;6204137;28;20050;-65
2021/12/25 11:18:25;;;;;;;58.17;33.85;;;;;;;;;;6204411;28;20189;-65
2021/12/25 11:21:26;;;;;;;61.30;34.13;;;;;;;;;;6203954;28;20053;-65
2021/12/25 11:24:32;;;;;;;56.17;31.33;;;;;;;;;;6214809;28;20524;-64
2021/12/25 11:27:34;;;;;;;58.97;33.03;;;;;;;;;;6198031;28;20088;-63
2021/12/25 11:30:38;;;;;;;53.47;30.58;;;;;;;;;;6188193;28;20039;-65
2021/12/25 11:33:41;;;;;;;;;;;;;;;;;;6182605;28;20105;-65
2021/12/25 11:36:45;;;;;;;54.08;29.73;;;;;;;;;;6177040;28;20032;-66
2021/12/25 11:39:51;;;;;;;57.08;30.13;;;;;;;;;;6186748;28;20514;-64
2021/12/25 11:42:57;;;;;;;57.67;31.65;;;;;;;;;;6207897;28;20046;-64
2021/12/25 11:45:59;;;;;;;53.80;31.35;;;;;;;;;;6170720;28;20058;-65
2021/12/25 11:49:07;;;;;;;61.33;32.72;;;;;;;;;;6182018;28;20120;-65
2021/12/25 11:52:18;;;;;;;58.10;33.03;;;;;;;;;;6189169;28;20077;-65
2021/12/25 11:58:49;;;;;;;63.90;34.65;;;;;;;;;;6192727;28;20085;-64
2021/12/25 12:01:54;;;;;;;61.05;35.33;;;;;;;;;;6192012;28;20364;-65
2021/12/25 12:05:19;;;;;;;59.63;33.63;;;;;;;;;;6194624;28;20061;-65
2021/12/25 12:08:21;;;;;;;60.50;34.33;;;;;;;;;;6188236;28;20074;-64
2021/12/25 12:11:24;;;;;;;61.53;36.22;;;;;;;;;;6175369;28;20050;-65
2021/12/25 12:14:27;;;;;;;66.78;36.33;;;;;;;;;;6212568;28;20041;-65
2021/12/25 12:17:31;;;;;;;69.40;35.88;;;;;;;;;;6206369;28;20501;-64
2021/12/25 12:20:39;;;;;;;;;;;;;;;;;;6210092;28;20050;-64
2021/12/25 12:23:51;;;;;;;60.22;32.08;;;;;;;;;;6209437;28;19933;-64
2021/12/25 12:26:55;;;;;;;58.15;32.65;;;;;;;;;;6185540;28;20523;-64
2021/12/25 12:29:57;;;;;;;64.95;35.22;;;;;;;;;;6193551;28;20120;-63
2021/12/25 12:33:00;;;;;;;63.80;36.25;;;;;;;;;;6183545;28;20053;-64
2021/12/25 12:36:17;;;;;;;61.58;34.75;;;;;;;;;;6197153;28;20128;-65
2021/12/25 12:39:19;;;;;;;64.78;36.03;;;;;;;;;;6189185;28;20133;-64
2021/12/25 12:42:21;;;;;;;61.03;35.28;;;;;;;;;;6190970;28;20050;-66
2021/12/25 12:45:25;;;;;;;64.70;34.70;;;;;;;;;;6199282;28;20120;-65
2021/12/25 12:48:26;;;;;;;61.55;34.80;;;;;;;;;;6209916;28;20056;-65
2021/12/25 12:51:29;;;;;;;58.22;33.58;;;;;;;;;;6205891;28;20137;-65
2021/12/25 12:54:41;;;;;;;58.67;34.35;;;;;;;;;;6206532;28;20130;-65
2021/12/25 12:57:44;;;;;;;62.55;35.50;;;;;;;;;;6175565;28;20201;-64
2021/12/25 13:00:48;;;;;;;65.00;36.45;;;;;;;;;;6169676;28;20181;-66
2021/12/25 13:03:55;;;;;;;58.45;35.08;;;;;;;;;;6184647;28;20078;-66
2021/12/25 13:06:58;;;;;;;57.88;32.90;;;;;;;;;;6180416;28;20081;-65
2021/12/25 13:10:12;;;;;;;61.55;34.03;;;;;;;;;;6197480;28;20510;-65
2021/12/25 13:13:16;;;;;;;57.92;32.58;;;;;;;;;;6220662;28;20062;-66
2021/12/25 13:16:18;;;;;;;59.35;32.13;;;;;;;;;;6200144;28;20513;-65
2021/12/25 13:19:25;;;;;;;60.85;33.65;;;;;;;;;;6196915;28;20519;-65
2021/12/25 13:22:29;;;;;;;65.75;35.30;;;;;;;;;;6188343;28;20068;-64
2021/12/25 13:25:30;;;;;;;63.85;34.42;;;;;;;;;;6191669;28;20081;-64
2021/12/25 13:28:33;;;;;;;63.70;34.83;;;;;;;;;;6198984;28;20081;-65
2021/12/25 13:31:38;;;;;;;66.50;35.15;;;;;;;;;;6190437;28;20038;-65
2021/12/25 13:34:40;;;;;;;65.82;35.08;;;;;;;;;;6225334;28;20144;-64
2021/12/25 13:37:43;;;;;;;72.03;36.55;;;;;;;;;;6182981;28;20124;-65
2021/12/25 13:40:51;;;;;;;68.25;37.05;;;;;;;;;;6186536;28;20498;-65
2021/12/25 13:43:52;;;;;;;70.97;39.55;;;;;;;;;;6199550;28;20054;-65
2021/12/25 13:46:56;;;;;;;70.47;39.72;;;;;;;;;;6207460;28;20117;-65
2021/12/25 13:50:00;;;;;;;70.00;38.20;;;;;;;;;;6220472;28;20053;-65
2021/12/25 13:53:10;;;;;;;73.68;40.08;;;;;;;;;;6214044;28;20120;-65
2021/12/25 13:56:13;;;;;;;74.50;40.00;;;;;;;;;;6205271;28;20038;-65
2021/12/25 13:59:15;;;;;;;71.75;40.17;;;;;;;;;;6200780;28;20511;-65
2021/12/25 14:02:17;;;;;;;72.40;39.65;;;;;;;;;;6186284;28;20142;-65
2021/12/25 14:05:21;;;;;;;73.18;39.80;;;;;;;;;;6176507;28;20050;-65
2021/12/25 14:08:26;;;;;;;67.50;37.20;;;;;;;;;;6185164;28;20122;-65
2021/12/25 14:11:28;;;;;;;71.35;38.85;;;;;;;;;;6180698;28;20070;-65
2021/12/25 14:14:31;;;;;;;74.80;39.30;;;;;;;;;;6217335;28;20136;-65
2021/12/25 14:17:32;;;;;;;74.32;39.80;;;;;;;;;;6199073;28;20536;-65
2021/12/25 14:20:36;;;;;;;74.97;40.65;;;;;;;;;;6209972;28;20076;-65
2021/12/25 14:23:39;;;;;;;73.80;39.33;;;;;;;;;;6197060;28;20504;-65
2021/12/25 14:26:41;;;;;;;77.80;40.95;;;;;;;;;;6181110;28;20130;-64
2021/12/25 14:29:44;;;;;;;80.20;42.13;;;;;;;;;;6197704;28;20047;-65
2021/12/25 14:32:49;;;;;;;75.90;41.30;;;;;;;;;;6189901;28;20207;-64
2021/12/25 14:35:51;;;;;;;75.57;40.47;;;;;;;;;;6193139;28;20058;-64
2021/12/25 14:38:54;;;;;;;78.93;42.22;;;;;;;;;;6184890;28;20494;-65
2021/12/25 14:41:57;;;;;;;77.45;41.10;;;;;;;;;;6183570;28;20125;-65
2021/12/25 14:44:59;;;;;;;79.43;43.00;;;;;;;;;;6186738;28;20191;-65
2021/12/25 14:48:01;;;;;;;82.35;42.33;;;;;;;;;;6173964;28;20057;-65
2021/12/25 14:51:04;;;;;;;77.43;41.83;;;;;;;;;;6189721;28;20089;-65
2021/12/25 14:54:07;;;;;;;83.43;44.13;;;;;;;;;;6189029;28;20050;-65
2021/12/25 14:57:09;;;;;;;79.90;42.10;;;;;;;;;;6200714;28;20169;-66
2021/12/25 15:00:12;;;;;;;82.13;42.08;;;;;;;;;;6212413;28;20127;-66
2021/12/25 15:03:17;;;;;;;82.57;41.80;;;;;;;;;;6191015;28;20439;-65
2021/12/25 15:06:22;;;;;;;81.10;42.90;;;;;;;;;;6185686;28;20069;-65
2021/12/25 15:09:28;;;;;;;79.88;41.75;;;;;;;;;;6190726;28;20057;-64
2021/12/25 15:12:32;;;;;;;82.07;43.42;;;;;;;;;;6188973;28;20050;-65
2021/12/25 15:15:34;;;;;;;82.85;41.03;;;;;;;;;;6186287;28;20137;-64
2021/12/25 15:18:37;;;;;;;77.10;39.55;;;;;;;;;;6207416;28;20200;-64
2021/12/25 15:21:44;;;;;;;77.78;38.55;;;;;;;;;;6179047;28;20180;-65
2021/12/25 15:24:52;;;;;;;65.95;34.05;;;;;;;;;;6196326;28;20053;-64
2021/12/25 15:27:56;;;;;;;65.63;35.63;;;;;;;;;;6179639;28;20162;-65
2021/12/25 15:30:57;;;;;;;61.67;35.63;;;;;;;;;;6179186;28;20130;-64
2021/12/25 15:34:02;;;;;;;69.35;35.20;;;;;;;;;;6189615;28;20097;-64
2021/12/25 15:37:18;;;;;;;64.43;35.07;;;;;;;;;;6175060;28;20060;-65
2021/12/25 15:40:23;;;;;;;68.30;34.83;;;;;;;;;;6211133;28;20138;-65
2021/12/25 15:43:26;;;;;;;64.25;34.80;;;;;;;;;;6214250;28;20188;-65
2021/12/25 15:46:27;;;;;;;70.43;36.20;;;;;;;;;;6197499;28;20454;-65
2021/12/25 15:49:29;;;;;;;68.32;34.20;;;;;;;;;;6209216;28;20533;-65
2021/12/25 15:52:31;;;;;;;68.93;35.15;;;;;;;;;;6202395;28;20466;-65
2021/12/25 15:55:36;;;;;;;65.90;35.97;;;;;;;;;;6204902;28;20519;-64
2021/12/25 15:58:38;;;;;;;70.57;36.45;;;;;;;;;;6217342;28;20046;-65
2021/12/25 16:01:40;;;;;;;71.72;36.67;;;;;;;;;;6198875;28;20116;-64
2021/12/25 16:04:42;;;;;;;72.97;35.70;;;;;;;;;;6217676;28;20200;-65
2021/12/25 16:07:44;;;;;;;69.60;36.90;;;;;;;;;;6194233;28;20045;-64
2021/12/25 16:10:48;;;;;;;72.10;37.00;;;;;;;;;;6178865;28;20136;-64
2021/12/25 16:13:50;;;;;;;66.38;35.00;;;;;;;;;;6187535;28;20522;-64
2021/12/25 16:16:52;;;;;;;64.85;34.03;;;;;;;;;;6170951;28;20494;-65
2021/12/25 16:19:54;;;;;;;64.43;35.08;;;;;;;;;;6199822;28;20483;-65
2021/12/25 16:22:58;;;;;;;65.32;33.70;;;;;;;;;;6197022;28;20179;-64
2021/12/25 16:26:01;;;;;;;64.63;34.75;;;;;;;;;;6216460;28;20056;-64
2021/12/25 16:29:03;;;;;;;64.95;35.25;;;;;;;;;;6220054;28;20053;-64
2021/12/25 16:32:06;;;;;;;64.88;36.28;;;;;;;;;;6204358;28;20127;-64
2021/12/25 16:35:10;;;;;;;66.50;36.22;;;;;;;;;;6211877;28;20108;-65
2021/12/25 16:38:12;;;;;;;63.63;34.15;;;;;;;;;;6212576;28;20041;-64
2021/12/25 16:41:15;;;;;;;67.57;35.08;;;;;;;;;;6197451;28;20511;-65
2021/12/25 16:44:19;;;;;;;65.85;35.67;;;;;;;;;;6218467;28;20100;-64
2021/12/25 16:47:21;;;;;;;68.45;34.90;;;;;;;;;;6190812;28;20060;-65
2021/12/25 16:50:23;;;;;;;60.40;34.72;;;;;;;;;;6173849;28;20050;-65
2021/12/25 16:53:25;;;;;;;59.78;33.55;;;;;;;;;;6213216;28;20189;-65
2021/12/25 16:56:28;;;;;;;59.78;32.50;;;;;;;;;;6202626;28;20117;-64
2021/12/25 16:59:31;;;;;;;65.20;34.37;;;;;;;;;;6198468;28;20054;-64
2021/12/25 17:02:33;;;;;;;63.75;34.33;;;;;;;;;;6202420;28;20139;-65
2021/12/25 17:05:36;;;;;;;55.42;32.80;;;;;;;;;;6204330;28;20049;-65
2021/12/25 17:08:38;;;;;;;57.50;32.15;;;;;;;;;;6220946;28;20058;-64
2021/12/25 17:11:42;;;;;;;61.42;35.60;;;;;;;;;;6210050;28;20042;-65
2021/12/25 17:14:45;;;;;;;57.17;33.33;;;;;;;;;;6220675;28;20068;-65
2021/12/25 17:17:48;;;;;;;57.92;32.85;;;;;;;;;;6191711;28;20080;-65
2021/12/25 17:20:51;;;;;;;55.42;30.92;;;;;;;;;;6198168;28;20030;-65
2021/12/25 17:23:53;;;;;;;49.65;29.55;;;;;;;;;;6212642;28;20054;-64
2021/12/25 17:26:57;;;;;;;56.72;32.08;;;;;;;;;;6196325;28;20058;-65
2021/12/25 17:29:58;;;;;;;57.00;32.30;;;;;;;;;;6204611;28;20057;-64
2021/12/25 17:33:00;;;;;;;56.38;33.35;;;;;;;;;;6161963;28;20173;-65
2021/12/25 17:36:02;;;;;;;56.22;31.98;;;;;;;;;;6184161;28;20046;-65
2021/12/25 17:39:04;;;;;;;55.75;32.75;;;;;;;;;;6210502;28;20126;-65
2021/12/25 17:42:09;;;;;;;58.42;33.03;;;;;;;;;;6207336;28;20128;-66
2021/12/25 17:45:12;;;;;;;58.17;32.70;;;;;;;;;;6218454;28;20041;-66
2021/12/25 17:48:14;;;;;;;59.05;33.42;;;;;;;;;;6193930;28;20198;-65
2021/12/25 17:51:15;;;;;;;56.70;32.63;;;;;;;;;;6198770;28;20089;-65
2021/12/25 17:54:19;;;;;;;55.35;33.53;;;;;;;;;;6214784;28;20409;-65
2021/12/25 17:57:22;;;;;;;62.33;35.03;;;;;;;;;;6211012;28;20097;-65
2021/12/25 18:00:26;;;;;;;61.35;34.08;;;;;;;;;;6201307;28;20485;-65
2021/12/25 18:03:28;;;;;;;61.25;34.97;;;;;;;;;;6206387;28;20098;-65
2021/12/25 18:06:30;;;;;;;59.65;34.53;;;;;;;;;;6176792;28;20046;-64
2021/12/25 18:09:33;;;;;;;63.05;35.05;;;;;;;;;;6203810;28;20057;-65
2021/12/25 18:12:37;;;;;;;59.95;35.22;;;;;;;;;;6204115;28;20048;-65
2021/12/25 18:15:38;;;;;;;64.13;35.08;;;;;;;;;;6206848;28;20048;-65
2021/12/25 18:18:40;;;;;;;60.60;34.53;;;;;;;;;;6196099;28;20061;-65
2021/12/25 18:21:42;;;;;;;65.13;35.13;;;;;;;;;;6200537;28;20613;-65
2021/12/25 18:24:44;;;;;;;60.45;33.58;;;;;;;;;;6221664;28;20178;-65
2021/12/25 18:27:47;;;;;;;59.83;35.13;;;;;;;;;;6205076;28;20053;-65
2021/12/25 18:30:49;;;;;;;61.45;34.80;;;;;;;;;;6201022;28;20931;-65
2021/12/25 18:33:51;;;;;;;71.70;37.45;;;;;;;;;;6213748;28;20080;-64
2021/12/25 18:36:53;;;;;;;63.72;36.40;;;;;;;;;;6190286;28;20487;-64
2021/12/25 18:39:55;;;;;;;62.90;35.03;;;;;;;;;;6190112;28;20151;-64
2021/12/25 18:42:58;;;;;;;61.92;34.22;;;;;;;;;;6181990;28;20124;-64
2021/12/25 18:46:00;;;;;;;59.70;33.63;;;;;;;;;;6183774;28;20084;-64
2021/12/25 18:49:02;;;;;;;55.72;31.60;;;;;;;;;;6211243;28;20096;-65